sensor_id;sensor_type;location;lat;lon;timestamp;P1;durP1;ratioP1;P2;durP2;ratioP2
50681;SDS011;36779;52.168;20.878;2022-08-23T00:01:34;18.20;;;8.60;;
50681;SDS011;36779;52.168;20.878;2022-08-23T00:04:07;21.70;;;9.80;;
50681;SDS011;36779;52.168;20.878;2022-08-23T00:06:38;21.50;;;10.10;;
50681;SDS011;36779;52.168;20.878;2022-08-23T00:09:07;33.20;;;11.10;;
50681;SDS011;36779;52.168;20.878;2022-08-23T00:11:37;23.30;;;10.90;;
50681;SDS011;36779;52.168;20.878;2022-08-23T00:14:10;20.20;;;9.40;;
50681;SDS011;36779;52.168;20.878;2022-08-23T00:16:40;19.30;;;9.30;;
50681;SDS011;36779;52.168;20.878;2022-08-23T00:19:11;19.60;;;8.60;;
50681;SDS011;36779;52.168;20.878;2022-08-23T00:21:43;19.90;;;9.70;;
50681;SDS011;36779;52.168;20.878;2022-08-23T00:24:14;25.90;;;10.20;;
50681;SDS011;36779;52.168;20.878;2022-08-23T00:26:53;24.10;;;10.70;;
50681;SDS011;36779;52.168;20.878;2022-08-23T00:29:26;18.90;;;9.80;;
50681;SDS011;36779;52.168;20.878;2022-08-23T00:31:57;20.20;;;9.70;;
50681;SDS011;36779;52.168;20.878;2022-08-23T00:34:26;19.70;;;9.10;;
50681;SDS011;36779;52.168;20.878;2022-08-23T00:36:54;22.30;;;9.10;;
50681;SDS011;36779;52.168;20.878;2022-08-23T00:39:24;15.40;;;9.20;;
50681;SDS011;36779;52.168;20.878;2022-08-23T00:41:55;20.20;;;9.40;;
50681;SDS011;36779;52.168;20.878;2022-08-23T00:44:28;21.30;;;10.00;;
50681;SDS011;36779;52.168;20.878;2022-08-23T00:47:18;23.70;;;9.50;;
50681;SDS011;36779;52.168;20.878;2022-08-23T00:50:10;22.70;;;9.40;;
50681;SDS011;36779;52.168;20.878;2022-08-23T00:52:54;19.20;;;9.50;;
50681;SDS011;36779;52.168;20.878;2022-08-23T00:55:28;16.70;;;8.90;;
50681;SDS011;36779;52.168;20.878;2022-08-23T00:57:57;19.50;;;9.90;;
50681;SDS011;36779;52.168;20.878;2022-08-23T01:00:27;18.60;;;9.50;;
50681;SDS011;36779;52.168;20.878;2022-08-23T01:02:56;21.60;;;10.00;;
50681;SDS011;36779;52.168;20.878;2022-08-23T01:05:27;17.80;;;8.40;;
50681;SDS011;36779;52.168;20.878;2022-08-23T01:08:02;20.50;;;9.20;;
50681;SDS011;36779;52.168;20.878;2022-08-23T01:10:31;17.00;;;8.30;;
50681;SDS011;36779;52.168;20.878;2022-08-23T01:13:10;15.30;;;7.90;;
50681;SDS011;36779;52.168;20.878;2022-08-23T01:15:43;16.30;;;8.60;;
50681;SDS011;36779;52.168;20.878;2022-08-23T01:18:16;21.10;;;10.50;;
50681;SDS011;36779;52.168;20.878;2022-08-23T01:20:49;19.20;;;9.50;;
50681;SDS011;36779;52.168;20.878;2022-08-23T01:23:24;19.90;;;9.70;;
50681;SDS011;36779;52.168;20.878;2022-08-23T01:25:57;21.40;;;8.90;;
50681;SDS011;36779;52.168;20.878;2022-08-23T01:28:25;23.80;;;9.70;;
50681;SDS011;36779;52.168;20.878;2022-08-23T01:30:54;21.40;;;10.40;;
50681;SDS011;36779;52.168;20.878;2022-08-23T01:33:23;17.80;;;9.00;;
50681;SDS011;36779;52.168;20.878;2022-08-23T01:35:53;19.40;;;9.90;;
50681;SDS011;36779;52.168;20.878;2022-08-23T01:38:23;16.50;;;10.30;;
50681;SDS011;36779;52.168;20.878;2022-08-23T01:40:54;22.10;;;11.40;;
50681;SDS011;36779;52.168;20.878;2022-08-23T01:43:23;16.90;;;9.80;;
50681;SDS011;36779;52.168;20.878;2022-08-23T01:45:53;17.80;;;9.40;;
50681;SDS011;36779;52.168;20.878;2022-08-23T01:48:23;18.50;;;9.80;;
50681;SDS011;36779;52.168;20.878;2022-08-23T01:50:52;22.20;;;10.00;;
50681;SDS011;36779;52.168;20.878;2022-08-23T01:53:21;20.10;;;10.10;;
50681;SDS011;36779;52.168;20.878;2022-08-23T01:55:50;22.70;;;9.80;;
50681;SDS011;36779;52.168;20.878;2022-08-23T01:58:19;20.30;;;9.90;;
50681;SDS011;36779;52.168;20.878;2022-08-23T02:00:48;20.20;;;10.10;;
50681;SDS011;36779;52.168;20.878;2022-08-23T02:03:17;23.10;;;10.20;;
50681;SDS011;36779;52.168;20.878;2022-08-23T02:05:46;22.20;;;11.50;;
50681;SDS011;36779;52.168;20.878;2022-08-23T02:08:15;29.50;;;11.70;;
50681;SDS011;36779;52.168;20.878;2022-08-23T02:11:06;14.40;;;9.30;;
50681;SDS011;36779;52.168;20.878;2022-08-23T02:13:38;23.60;;;9.70;;
50681;SDS011;36779;52.168;20.878;2022-08-23T02:16:07;18.50;;;9.40;;
50681;SDS011;36779;52.168;20.878;2022-08-23T02:18:41;21.60;;;10.10;;
50681;SDS011;36779;52.168;20.878;2022-08-23T02:21:11;18.00;;;10.50;;
50681;SDS011;36779;52.168;20.878;2022-08-23T02:23:39;20.30;;;10.20;;
50681;SDS011;36779;52.168;20.878;2022-08-23T02:26:08;19.30;;;9.60;;
50681;SDS011;36779;52.168;20.878;2022-08-23T02:28:36;21.80;;;10.40;;
50681;SDS011;36779;52.168;20.878;2022-08-23T02:31:05;22.50;;;10.00;;
50681;SDS011;36779;52.168;20.878;2022-08-23T02:33:36;24.20;;;9.80;;
50681;SDS011;36779;52.168;20.878;2022-08-23T02:36:05;17.80;;;10.40;;
50681;SDS011;36779;52.168;20.878;2022-08-23T02:38:34;22.80;;;10.30;;
50681;SDS011;36779;52.168;20.878;2022-08-23T02:41:03;27.10;;;11.30;;
50681;SDS011;36779;52.168;20.878;2022-08-23T02:43:31;19.20;;;9.80;;
50681;SDS011;36779;52.168;20.878;2022-08-23T02:46:03;27.30;;;11.10;;
50681;SDS011;36779;52.168;20.878;2022-08-23T02:48:33;21.30;;;11.00;;
50681;SDS011;36779;52.168;20.878;2022-08-23T02:51:04;22.10;;;11.60;;
50681;SDS011;36779;52.168;20.878;2022-08-23T02:53:35;19.10;;;10.20;;
50681;SDS011;36779;52.168;20.878;2022-08-23T02:56:07;18.30;;;10.30;;
50681;SDS011;36779;52.168;20.878;2022-08-23T02:58:48;25.00;;;11.20;;
50681;SDS011;36779;52.168;20.878;2022-08-23T03:01:23;21.30;;;10.80;;
50681;SDS011;36779;52.168;20.878;2022-08-23T03:03:56;19.40;;;11.10;;
50681;SDS011;36779;52.168;20.878;2022-08-23T03:06:28;20.70;;;11.10;;
50681;SDS011;36779;52.168;20.878;2022-08-23T03:09:00;19.40;;;10.40;;
50681;SDS011;36779;52.168;20.878;2022-08-23T03:11:30;19.10;;;10.60;;
50681;SDS011;36779;52.168;20.878;2022-08-23T03:13:59;22.10;;;11.20;;
50681;SDS011;36779;52.168;20.878;2022-08-23T03:16:28;19.10;;;10.40;;
50681;SDS011;36779;52.168;20.878;2022-08-23T03:18:57;14.90;;;9.80;;
50681;SDS011;36779;52.168;20.878;2022-08-23T03:21:28;18.40;;;9.80;;
50681;SDS011;36779;52.168;20.878;2022-08-23T03:23:59;16.00;;;9.80;;
50681;SDS011;36779;52.168;20.878;2022-08-23T03:26:33;15.40;;;10.30;;
50681;SDS011;36779;52.168;20.878;2022-08-23T03:29:02;17.40;;;10.20;;
50681;SDS011;36779;52.168;20.878;2022-08-23T03:31:34;19.30;;;10.90;;
50681;SDS011;36779;52.168;20.878;2022-08-23T03:34:06;18.50;;;10.10;;
50681;SDS011;36779;52.168;20.878;2022-08-23T03:36:34;19.00;;;9.80;;
50681;SDS011;36779;52.168;20.878;2022-08-23T03:39:04;15.80;;;10.10;;
50681;SDS011;36779;52.168;20.878;2022-08-23T03:41:32;14.60;;;9.10;;
50681;SDS011;36779;52.168;20.878;2022-08-23T03:44:01;15.30;;;9.50;;
50681;SDS011;36779;52.168;20.878;2022-08-23T03:46:31;16.70;;;10.10;;
50681;SDS011;36779;52.168;20.878;2022-08-23T03:49:01;13.80;;;10.30;;
50681;SDS011;36779;52.168;20.878;2022-08-23T03:51:41;18.10;;;10.20;;
50681;SDS011;36779;52.168;20.878;2022-08-23T03:54:09;18.90;;;10.30;;
50681;SDS011;36779;52.168;20.878;2022-08-23T03:56:39;16.50;;;9.80;;
50681;SDS011;36779;52.168;20.878;2022-08-23T03:59:18;14.70;;;9.60;;
50681;SDS011;36779;52.168;20.878;2022-08-23T04:01:47;14.40;;;9.10;;
50681;SDS011;36779;52.168;20.878;2022-08-23T04:04:15;12.60;;;8.90;;
50681;SDS011;36779;52.168;20.878;2022-08-23T04:07:01;13.00;;;9.60;;
50681;SDS011;36779;52.168;20.878;2022-08-23T04:09:29;18.70;;;10.90;;
50681;SDS011;36779;52.168;20.878;2022-08-23T04:11:58;13.90;;;10.20;;
50681;SDS011;36779;52.168;20.878;2022-08-23T04:14:27;17.00;;;9.80;;
50681;SDS011;36779;52.168;20.878;2022-08-23T04:16:56;14.30;;;9.20;;
50681;SDS011;36779;52.168;20.878;2022-08-23T04:19:25;17.70;;;10.00;;
50681;SDS011;36779;52.168;20.878;2022-08-23T04:22:01;14.70;;;9.70;;
50681;SDS011;36779;52.168;20.878;2022-08-23T04:24:36;13.40;;;9.30;;
50681;SDS011;36779;52.168;20.878;2022-08-23T04:27:05;14.60;;;9.70;;
50681;SDS011;36779;52.168;20.878;2022-08-23T04:29:34;18.40;;;9.50;;
50681;SDS011;36779;52.168;20.878;2022-08-23T04:32:05;14.60;;;9.20;;
50681;SDS011;36779;52.168;20.878;2022-08-23T04:34:38;15.50;;;9.80;;
50681;SDS011;36779;52.168;20.878;2022-08-23T04:37:12;16.00;;;10.20;;
50681;SDS011;36779;52.168;20.878;2022-08-23T04:39:40;17.50;;;10.40;;
50681;SDS011;36779;52.168;20.878;2022-08-23T04:42:25;16.80;;;10.10;;
50681;SDS011;36779;52.168;20.878;2022-08-23T04:44:53;13.40;;;9.50;;
50681;SDS011;36779;52.168;20.878;2022-08-23T04:47:23;17.50;;;9.20;;
50681;SDS011;36779;52.168;20.878;2022-08-23T04:49:51;13.40;;;10.00;;
50681;SDS011;36779;52.168;20.878;2022-08-23T04:52:20;16.30;;;10.50;;
50681;SDS011;36779;52.168;20.878;2022-08-23T04:54:48;15.00;;;9.80;;
50681;SDS011;36779;52.168;20.878;2022-08-23T04:57:28;14.70;;;10.40;;
50681;SDS011;36779;52.168;20.878;2022-08-23T04:59:57;14.90;;;10.10;;
50681;SDS011;36779;52.168;20.878;2022-08-23T05:02:27;14.80;;;9.80;;
50681;SDS011;36779;52.168;20.878;2022-08-23T05:04:56;16.70;;;9.70;;
50681;SDS011;36779;52.168;20.878;2022-08-23T05:07:24;15.80;;;10.10;;
50681;SDS011;36779;52.168;20.878;2022-08-23T05:10:10;20.40;;;11.70;;
50681;SDS011;36779;52.168;20.878;2022-08-23T05:12:42;18.70;;;11.10;;
50681;SDS011;36779;52.168;20.878;2022-08-23T05:15:11;17.10;;;11.60;;
50681;SDS011;36779;52.168;20.878;2022-08-23T05:17:43;19.20;;;11.00;;
50681;SDS011;36779;52.168;20.878;2022-08-23T05:20:12;14.00;;;10.20;;
50681;SDS011;36779;52.168;20.878;2022-08-23T05:22:41;16.40;;;9.90;;
50681;SDS011;36779;52.168;20.878;2022-08-23T05:25:29;13.00;;;9.20;;
50681;SDS011;36779;52.168;20.878;2022-08-23T05:28:13;11.80;;;8.60;;
50681;SDS011;36779;52.168;20.878;2022-08-23T05:30:43;16.30;;;8.80;;
50681;SDS011;36779;52.168;20.878;2022-08-23T05:33:23;15.50;;;8.40;;
50681;SDS011;36779;52.168;20.878;2022-08-23T05:35:52;11.90;;;8.40;;
50681;SDS011;36779;52.168;20.878;2022-08-23T05:38:21;14.20;;;9.10;;
50681;SDS011;36779;52.168;20.878;2022-08-23T05:40:50;12.60;;;8.50;;
50681;SDS011;36779;52.168;20.878;2022-08-23T05:43:22;15.60;;;8.30;;
50681;SDS011;36779;52.168;20.878;2022-08-23T05:45:58;10.80;;;7.30;;
50681;SDS011;36779;52.168;20.878;2022-08-23T05:48:31;10.20;;;7.40;;
50681;SDS011;36779;52.168;20.878;2022-08-23T05:51:10;11.90;;;7.40;;
50681;SDS011;36779;52.168;20.878;2022-08-23T05:53:40;11.00;;;7.30;;
50681;SDS011;36779;52.168;20.878;2022-08-23T05:56:13;15.80;;;7.60;;
50681;SDS011;36779;52.168;20.878;2022-08-23T05:58:44;15.50;;;8.10;;
50681;SDS011;36779;52.168;20.878;2022-08-23T06:01:13;14.50;;;7.90;;
50681;SDS011;36779;52.168;20.878;2022-08-23T06:03:43;11.10;;;8.30;;
50681;SDS011;36779;52.168;20.878;2022-08-23T06:06:12;11.20;;;8.10;;
50681;SDS011;36779;52.168;20.878;2022-08-23T06:08:43;11.70;;;6.80;;
50681;SDS011;36779;52.168;20.878;2022-08-23T06:11:14;11.40;;;6.80;;
50681;SDS011;36779;52.168;20.878;2022-08-23T06:13:46;15.00;;;8.30;;
50681;SDS011;36779;52.168;20.878;2022-08-23T06:16:17;14.30;;;8.40;;
50681;SDS011;36779;52.168;20.878;2022-08-23T06:18:50;12.90;;;8.10;;
50681;SDS011;36779;52.168;20.878;2022-08-23T06:21:43;11.90;;;7.70;;
50681;SDS011;36779;52.168;20.878;2022-08-23T06:24:12;11.60;;;7.90;;
50681;SDS011;36779;52.168;20.878;2022-08-23T06:26:50;14.60;;;8.10;;
50681;SDS011;36779;52.168;20.878;2022-08-23T06:29:19;11.20;;;8.30;;
50681;SDS011;36779;52.168;20.878;2022-08-23T06:31:52;12.80;;;7.80;;
50681;SDS011;36779;52.168;20.878;2022-08-23T06:34:28;17.10;;;7.90;;
50681;SDS011;36779;52.168;20.878;2022-08-23T06:37:18;14.70;;;8.00;;
50681;SDS011;36779;52.168;20.878;2022-08-23T06:40:26;15.40;;;8.10;;
50681;SDS011;36779;52.168;20.878;2022-08-23T06:43:16;12.80;;;7.60;;
50681;SDS011;36779;52.168;20.878;2022-08-23T06:45:52;14.10;;;8.00;;
50681;SDS011;36779;52.168;20.878;2022-08-23T06:48:25;11.80;;;8.30;;
50681;SDS011;36779;52.168;20.878;2022-08-23T06:50:54;11.30;;;8.50;;
50681;SDS011;36779;52.168;20.878;2022-08-23T06:53:25;15.30;;;8.90;;
50681;SDS011;36779;52.168;20.878;2022-08-23T06:56:13;14.00;;;8.10;;
50681;SDS011;36779;52.168;20.878;2022-08-23T06:58:52;15.30;;;8.30;;
50681;SDS011;36779;52.168;20.878;2022-08-23T07:01:53;15.20;;;8.00;;
50681;SDS011;36779;52.168;20.878;2022-08-23T07:04:37;14.30;;;8.30;;
50681;SDS011;36779;52.168;20.878;2022-08-23T07:07:06;16.10;;;8.30;;
50681;SDS011;36779;52.168;20.878;2022-08-23T07:09:39;14.10;;;7.70;;
50681;SDS011;36779;52.168;20.878;2022-08-23T07:12:08;16.40;;;8.20;;
50681;SDS011;36779;52.168;20.878;2022-08-23T07:14:40;14.80;;;7.50;;
50681;SDS011;36779;52.168;20.878;2022-08-23T07:17:08;18.10;;;9.30;;
50681;SDS011;36779;52.168;20.878;2022-08-23T07:19:37;16.40;;;9.10;;
50681;SDS011;36779;52.168;20.878;2022-08-23T07:22:07;15.10;;;9.00;;
50681;SDS011;36779;52.168;20.878;2022-08-23T07:24:36;16.50;;;9.00;;
50681;SDS011;36779;52.168;20.878;2022-08-23T07:27:06;13.00;;;8.40;;
50681;SDS011;36779;52.168;20.878;2022-08-23T07:29:59;14.90;;;8.60;;
50681;SDS011;36779;52.168;20.878;2022-08-23T07:32:29;16.50;;;7.50;;
50681;SDS011;36779;52.168;20.878;2022-08-23T07:35:02;15.70;;;7.30;;
50681;SDS011;36779;52.168;20.878;2022-08-23T07:37:33;16.20;;;7.60;;
50681;SDS011;36779;52.168;20.878;2022-08-23T07:40:03;16.90;;;8.00;;
50681;SDS011;36779;52.168;20.878;2022-08-23T07:42:34;14.70;;;8.10;;
50681;SDS011;36779;52.168;20.878;2022-08-23T07:45:05;20.00;;;8.70;;
50681;SDS011;36779;52.168;20.878;2022-08-23T07:47:36;16.40;;;8.30;;
50681;SDS011;36779;52.168;20.878;2022-08-23T07:50:07;15.50;;;8.60;;
50681;SDS011;36779;52.168;20.878;2022-08-23T07:52:36;15.70;;;8.40;;
50681;SDS011;36779;52.168;20.878;2022-08-23T07:55:05;14.90;;;8.30;;
50681;SDS011;36779;52.168;20.878;2022-08-23T07:57:41;16.90;;;8.10;;
50681;SDS011;36779;52.168;20.878;2022-08-23T08:00:28;18.10;;;7.70;;
50681;SDS011;36779;52.168;20.878;2022-08-23T08:03:07;16.20;;;7.60;;
50681;SDS011;36779;52.168;20.878;2022-08-23T08:05:54;15.30;;;8.70;;
50681;SDS011;36779;52.168;20.878;2022-08-23T08:08:23;20.00;;;9.30;;
50681;SDS011;36779;52.168;20.878;2022-08-23T08:10:53;16.40;;;8.90;;
50681;SDS011;36779;52.168;20.878;2022-08-23T08:13:21;18.30;;;9.00;;
50681;SDS011;36779;52.168;20.878;2022-08-23T08:15:51;15.00;;;8.50;;
50681;SDS011;36779;52.168;20.878;2022-08-23T08:18:20;18.20;;;8.30;;
50681;SDS011;36779;52.168;20.878;2022-08-23T08:21:10;21.70;;;9.30;;
50681;SDS011;36779;52.168;20.878;2022-08-23T08:24:04;14.80;;;9.30;;
50681;SDS011;36779;52.168;20.878;2022-08-23T08:26:57;18.30;;;9.50;;
50681;SDS011;36779;52.168;20.878;2022-08-23T08:29:26;15.60;;;9.00;;
50681;SDS011;36779;52.168;20.878;2022-08-23T08:31:55;20.60;;;8.60;;
50681;SDS011;36779;52.168;20.878;2022-08-23T08:34:23;20.50;;;8.90;;
50681;SDS011;36779;52.168;20.878;2022-08-23T08:36:54;20.00;;;8.80;;
50681;SDS011;36779;52.168;20.878;2022-08-23T08:39:26;19.00;;;9.30;;
50681;SDS011;36779;52.168;20.878;2022-08-23T08:42:05;21.20;;;9.20;;
50681;SDS011;36779;52.168;20.878;2022-08-23T08:44:48;18.90;;;9.30;;
50681;SDS011;36779;52.168;20.878;2022-08-23T08:47:35;15.30;;;8.50;;
50681;SDS011;36779;52.168;20.878;2022-08-23T08:50:08;16.70;;;9.40;;
50681;SDS011;36779;52.168;20.878;2022-08-23T08:52:42;22.70;;;8.70;;
50681;SDS011;36779;52.168;20.878;2022-08-23T08:55:21;16.60;;;8.00;;
50681;SDS011;36779;52.168;20.878;2022-08-23T08:57:54;17.60;;;9.00;;
50681;SDS011;36779;52.168;20.878;2022-08-23T09:00:25;15.50;;;8.20;;
50681;SDS011;36779;52.168;20.878;2022-08-23T09:02:56;20.50;;;9.00;;
50681;SDS011;36779;52.168;20.878;2022-08-23T09:05:32;19.50;;;8.30;;
50681;SDS011;36779;52.168;20.878;2022-08-23T09:08:08;16.30;;;7.90;;
50681;SDS011;36779;52.168;20.878;2022-08-23T09:10:51;23.50;;;8.90;;
50681;SDS011;36779;52.168;20.878;2022-08-23T09:13:34;16.80;;;7.70;;
50681;SDS011;36779;52.168;20.878;2022-08-23T09:16:31;23.70;;;8.00;;
50681;SDS011;36779;52.168;20.878;2022-08-23T09:19:11;16.70;;;7.50;;
50681;SDS011;36779;52.168;20.878;2022-08-23T09:21:41;16.20;;;8.20;;
50681;SDS011;36779;52.168;20.878;2022-08-23T09:24:14;20.20;;;8.30;;
50681;SDS011;36779;52.168;20.878;2022-08-23T09:26:57;19.80;;;8.70;;
50681;SDS011;36779;52.168;20.878;2022-08-23T09:29:28;24.20;;;8.80;;
50681;SDS011;36779;52.168;20.878;2022-08-23T09:31:59;20.00;;;8.10;;
50681;SDS011;36779;52.168;20.878;2022-08-23T09:34:39;17.00;;;8.30;;
50681;SDS011;36779;52.168;20.878;2022-08-23T09:37:12;18.40;;;7.80;;
50681;SDS011;36779;52.168;20.878;2022-08-23T09:39:45;19.10;;;8.30;;
50681;SDS011;36779;52.168;20.878;2022-08-23T09:42:26;20.70;;;8.80;;
50681;SDS011;36779;52.168;20.878;2022-08-23T09:44:58;18.90;;;8.20;;
50681;SDS011;36779;52.168;20.878;2022-08-23T09:47:32;20.70;;;9.60;;
50681;SDS011;36779;52.168;20.878;2022-08-23T09:50:16;18.30;;;8.20;;
50681;SDS011;36779;52.168;20.878;2022-08-23T09:52:56;23.20;;;8.40;;
50681;SDS011;36779;52.168;20.878;2022-08-23T09:55:29;22.30;;;8.60;;
50681;SDS011;36779;52.168;20.878;2022-08-23T09:58:02;19.80;;;8.30;;
50681;SDS011;36779;52.168;20.878;2022-08-23T10:00:34;20.70;;;7.70;;
50681;SDS011;36779;52.168;20.878;2022-08-23T10:06:00;18.40;;;7.80;;
50681;SDS011;36779;52.168;20.878;2022-08-23T10:08:33;23.10;;;8.10;;
50681;SDS011;36779;52.168;20.878;2022-08-23T10:11:12;19.00;;;8.00;;
50681;SDS011;36779;52.168;20.878;2022-08-23T10:13:44;24.00;;;7.80;;
50681;SDS011;36779;52.168;20.878;2022-08-23T10:16:15;20.00;;;8.70;;
50681;SDS011;36779;52.168;20.878;2022-08-23T10:19:02;15.90;;;8.20;;
50681;SDS011;36779;52.168;20.878;2022-08-23T10:21:38;18.40;;;8.10;;
50681;SDS011;36779;52.168;20.878;2022-08-23T10:24:14;21.80;;;8.60;;
50681;SDS011;36779;52.168;20.878;2022-08-23T10:26:52;23.10;;;8.50;;
50681;SDS011;36779;52.168;20.878;2022-08-23T10:29:55;24.50;;;8.00;;
50681;SDS011;36779;52.168;20.878;2022-08-23T10:32:35;23.30;;;8.10;;
50681;SDS011;36779;52.168;20.878;2022-08-23T10:35:25;18.00;;;8.00;;
50681;SDS011;36779;52.168;20.878;2022-08-23T10:38:08;19.30;;;7.50;;
50681;SDS011;36779;52.168;20.878;2022-08-23T10:40:51;17.00;;;7.10;;
50681;SDS011;36779;52.168;20.878;2022-08-23T10:43:30;22.70;;;7.50;;
50681;SDS011;36779;52.168;20.878;2022-08-23T10:46:06;22.00;;;8.10;;
50681;SDS011;36779;52.168;20.878;2022-08-23T10:48:37;22.20;;;7.30;;
50681;SDS011;36779;52.168;20.878;2022-08-23T10:51:15;20.80;;;6.90;;
50681;SDS011;36779;52.168;20.878;2022-08-23T10:54:02;18.80;;;6.90;;
50681;SDS011;36779;52.168;20.878;2022-08-23T10:56:34;24.80;;;7.10;;
50681;SDS011;36779;52.168;20.878;2022-08-23T10:59:12;25.30;;;7.00;;
50681;SDS011;36779;52.168;20.878;2022-08-23T11:01:46;22.10;;;6.70;;
50681;SDS011;36779;52.168;20.878;2022-08-23T11:04:20;22.70;;;6.80;;
50681;SDS011;36779;52.168;20.878;2022-08-23T11:07:15;23.60;;;6.50;;
50681;SDS011;36779;52.168;20.878;2022-08-23T11:09:52;23.00;;;6.30;;
50681;SDS011;36779;52.168;20.878;2022-08-23T11:12:29;21.80;;;6.40;;
50681;SDS011;36779;52.168;20.878;2022-08-23T11:15:09;20.10;;;7.10;;
50681;SDS011;36779;52.168;20.878;2022-08-23T11:20:56;23.70;;;6.10;;
50681;SDS011;36779;52.168;20.878;2022-08-23T11:29:36;19.90;;;5.30;;
50681;SDS011;36779;52.168;20.878;2022-08-23T11:32:32;16.20;;;6.20;;
50681;SDS011;36779;52.168;20.878;2022-08-23T11:38:03;21.60;;;5.90;;
50681;SDS011;36779;52.168;20.878;2022-08-23T11:40:56;26.30;;;5.80;;
50681;SDS011;36779;52.168;20.878;2022-08-23T11:43:33;25.70;;;5.30;;
50681;SDS011;36779;52.168;20.878;2022-08-23T11:49:20;26.00;;;5.50;;
50681;SDS011;36779;52.168;20.878;2022-08-23T11:52:10;28.80;;;5.00;;
50681;SDS011;36779;52.168;20.878;2022-08-23T11:55:02;23.30;;;5.00;;
50681;SDS011;36779;52.168;20.878;2022-08-23T11:57:55;27.80;;;5.10;;
50681;SDS011;36779;52.168;20.878;2022-08-23T12:00:53;27.90;;;5.20;;
50681;SDS011;36779;52.168;20.878;2022-08-23T12:03:34;23.60;;;4.40;;
50681;SDS011;36779;52.168;20.878;2022-08-23T12:06:14;30.40;;;5.00;;
50681;SDS011;36779;52.168;20.878;2022-08-23T12:09:10;25.50;;;4.80;;
50681;SDS011;36779;52.168;20.878;2022-08-23T12:12:09;30.60;;;5.50;;
50681;SDS011;36779;52.168;20.878;2022-08-23T12:14:52;22.40;;;4.80;;
50681;SDS011;36779;52.168;20.878;2022-08-23T12:20:33;26.70;;;5.20;;
50681;SDS011;36779;52.168;20.878;2022-08-23T12:23:10;25.00;;;5.00;;
50681;SDS011;36779;52.168;20.878;2022-08-23T12:25:57;18.80;;;5.20;;
50681;SDS011;36779;52.168;20.878;2022-08-23T12:28:35;26.20;;;4.70;;
50681;SDS011;36779;52.168;20.878;2022-08-23T12:31:15;30.10;;;5.60;;
50681;SDS011;36779;52.168;20.878;2022-08-23T12:33:57;26.50;;;5.00;;
50681;SDS011;36779;52.168;20.878;2022-08-23T12:36:37;30.00;;;5.40;;
50681;SDS011;36779;52.168;20.878;2022-08-23T12:41:51;27.40;;;5.70;;
50681;SDS011;36779;52.168;20.878;2022-08-23T12:44:23;24.40;;;5.40;;
50681;SDS011;36779;52.168;20.878;2022-08-23T12:46:52;21.10;;;5.50;;
50681;SDS011;36779;52.168;20.878;2022-08-23T12:49:23;24.90;;;5.20;;
50681;SDS011;36779;52.168;20.878;2022-08-23T12:51:55;17.80;;;4.60;;
50681;SDS011;36779;52.168;20.878;2022-08-23T12:54:32;25.30;;;5.30;;
50681;SDS011;36779;52.168;20.878;2022-08-23T12:57:04;28.00;;;5.30;;
50681;SDS011;36779;52.168;20.878;2022-08-23T12:59:39;30.90;;;5.80;;
50681;SDS011;36779;52.168;20.878;2022-08-23T13:02:13;26.40;;;5.30;;
50681;SDS011;36779;52.168;20.878;2022-08-23T13:04:47;23.00;;;5.30;;
50681;SDS011;36779;52.168;20.878;2022-08-23T13:07:16;28.20;;;5.60;;
50681;SDS011;36779;52.168;20.878;2022-08-23T13:09:49;25.50;;;5.10;;
50681;SDS011;36779;52.168;20.878;2022-08-23T13:12:21;31.10;;;5.20;;
50681;SDS011;36779;52.168;20.878;2022-08-23T13:14:52;23.80;;;5.20;;
50681;SDS011;36779;52.168;20.878;2022-08-23T13:17:30;25.40;;;5.60;;
50681;SDS011;36779;52.168;20.878;2022-08-23T13:20:15;27.80;;;5.10;;
50681;SDS011;36779;52.168;20.878;2022-08-23T13:22:56;31.00;;;5.50;;
50681;SDS011;36779;52.168;20.878;2022-08-23T13:25:29;29.10;;;5.60;;
50681;SDS011;36779;52.168;20.878;2022-08-23T13:28:00;23.50;;;4.70;;
50681;SDS011;36779;52.168;20.878;2022-08-23T13:30:56;30.70;;;6.00;;
50681;SDS011;36779;52.168;20.878;2022-08-23T13:33:27;24.90;;;5.40;;
50681;SDS011;36779;52.168;20.878;2022-08-23T13:36:05;32.80;;;5.80;;
50681;SDS011;36779;52.168;20.878;2022-08-23T13:38:41;28.00;;;5.60;;
50681;SDS011;36779;52.168;20.878;2022-08-23T13:41:11;37.80;;;5.70;;
50681;SDS011;36779;52.168;20.878;2022-08-23T13:43:57;35.30;;;6.20;;
50681;SDS011;36779;52.168;20.878;2022-08-23T13:46:32;29.60;;;5.70;;
50681;SDS011;36779;52.168;20.878;2022-08-23T13:49:10;27.70;;;5.40;;
50681;SDS011;36779;52.168;20.878;2022-08-23T13:51:42;36.20;;;5.70;;
50681;SDS011;36779;52.168;20.878;2022-08-23T13:54:49;33.00;;;6.00;;
50681;SDS011;36779;52.168;20.878;2022-08-23T13:57:20;38.30;;;6.10;;
50681;SDS011;36779;52.168;20.878;2022-08-23T13:59:49;32.50;;;5.80;;
50681;SDS011;36779;52.168;20.878;2022-08-23T14:02:20;32.40;;;6.20;;
50681;SDS011;36779;52.168;20.878;2022-08-23T14:04:50;32.40;;;6.30;;
50681;SDS011;36779;52.168;20.878;2022-08-23T14:07:19;40.40;;;5.80;;
50681;SDS011;36779;52.168;20.878;2022-08-23T14:15:34;33.90;;;6.20;;
50681;SDS011;36779;52.168;20.878;2022-08-23T14:18:22;29.30;;;6.00;;
50681;SDS011;36779;52.168;20.878;2022-08-23T14:20:51;33.20;;;6.10;;
50681;SDS011;36779;52.168;20.878;2022-08-23T14:23:20;31.90;;;6.10;;
50681;SDS011;36779;52.168;20.878;2022-08-23T14:25:49;36.60;;;6.70;;
50681;SDS011;36779;52.168;20.878;2022-08-23T14:28:21;28.90;;;6.10;;
50681;SDS011;36779;52.168;20.878;2022-08-23T14:30:56;36.20;;;6.40;;
50681;SDS011;36779;52.168;20.878;2022-08-23T14:33:27;37.80;;;6.40;;
50681;SDS011;36779;52.168;20.878;2022-08-23T14:35:56;31.70;;;6.10;;
50681;SDS011;36779;52.168;20.878;2022-08-23T14:38:27;36.20;;;6.80;;
50681;SDS011;36779;52.168;20.878;2022-08-23T14:40:56;37.00;;;6.80;;
50681;SDS011;36779;52.168;20.878;2022-08-23T14:43:27;34.50;;;6.60;;
50681;SDS011;36779;52.168;20.878;2022-08-23T14:45:56;35.00;;;6.10;;
50681;SDS011;36779;52.168;20.878;2022-08-23T14:48:25;40.40;;;6.90;;
50681;SDS011;36779;52.168;20.878;2022-08-23T14:50:54;31.10;;;6.40;;
50681;SDS011;36779;52.168;20.878;2022-08-23T14:53:24;27.20;;;6.50;;
50681;SDS011;36779;52.168;20.878;2022-08-23T14:55:55;25.80;;;5.40;;
50681;SDS011;36779;52.168;20.878;2022-08-23T14:58:43;17.60;;;4.80;;
50681;SDS011;36779;52.168;20.878;2022-08-23T15:01:13;19.10;;;4.90;;
50681;SDS011;36779;52.168;20.878;2022-08-23T15:03:42;20.30;;;5.00;;
50681;SDS011;36779;52.168;20.878;2022-08-23T15:06:11;16.00;;;5.10;;
50681;SDS011;36779;52.168;20.878;2022-08-23T15:08:41;13.50;;;4.60;;
50681;SDS011;36779;52.168;20.878;2022-08-23T15:11:10;15.60;;;4.30;;
50681;SDS011;36779;52.168;20.878;2022-08-23T15:13:59;11.60;;;4.00;;
50681;SDS011;36779;52.168;20.878;2022-08-23T15:16:28;12.60;;;3.60;;
50681;SDS011;36779;52.168;20.878;2022-08-23T15:18:57;8.20;;;3.20;;
50681;SDS011;36779;52.168;20.878;2022-08-23T15:21:26;9.90;;;3.50;;
50681;SDS011;36779;52.168;20.878;2022-08-23T15:23:54;14.50;;;4.20;;
50681;SDS011;36779;52.168;20.878;2022-08-23T15:26:24;8.50;;;3.70;;
50681;SDS011;36779;52.168;20.878;2022-08-23T15:28:55;11.80;;;3.60;;
50681;SDS011;36779;52.168;20.878;2022-08-23T15:31:24;16.00;;;4.60;;